Time;durP1;ratioP1;P1;durP2;ratioP2;P2;SDS_P1;SDS_P2;PMS_P1;PMS_P2;Temp;Humidity;BMP_temperature;BMP_pressure;BME280_temperature;BME280_humidity;BME280_pressure;Samples;Min_cycle;Max_cycle;Signal;HPM_P1;HPM_P2
2020/12/05 00:04:36;;;;;;;21.67;19.52;;;;;;;3.77;62.52;97992.53;10420331;28;20042;-68
2020/12/05 00:09:38;;;;;;;24.60;20.95;;;;;;;3.68;62.90;97981.66;10419091;28;20049;-66
2020/12/05 00:14:39;;;;;;;22.80;19.80;;;;;;;3.69;62.90;97980.75;10417626;28;20067;-67
2020/12/05 00:19:42;;;;;;;23.20;20.60;;;;;;;3.73;62.61;97977.13;10418287;28;20049;-67
2020/12/05 00:24:44;;;;;;;21.35;19.42;;;;;;;3.80;62.55;97965.59;10418383;28;20064;-67
2020/12/05 00:29:46;;;;;;;21.70;19.48;;;;;;;3.74;62.83;97982.25;10418345;28;20053;-67
2020/12/05 00:34:47;;;;;;;22.23;19.95;;;;;;;3.92;62.08;97969.47;10418817;28;20522;-66
2020/12/05 00:39:48;;;;;;;20.27;18.40;;;;;;;3.76;62.56;97980.47;10416717;28;20092;-67
2020/12/05 00:44:49;;;;;;;21.98;19.55;;;;;;;3.76;62.68;97975.28;10418014;28;20399;-66
2020/12/05 00:49:50;;;;;;;19.33;17.55;;;;;;;3.94;62.19;97978.06;10416481;28;20418;-67
2020/12/05 00:54:51;;;;;;;20.60;18.60;;;;;;;3.88;62.24;97973.09;10417523;28;20065;-66
2020/12/05 00:59:54;;;;;;;21.45;19.33;;;;;;;4.05;61.85;97991.50;10415737;28;20049;-66
2020/12/05 01:04:55;;;;;;;20.23;18.17;;;;;;;4.07;61.61;97994.88;10417004;28;20076;-67
2020/12/05 01:09:56;;;;;;;20.08;18.17;;;;;;;3.96;61.88;97989.25;10417274;28;20541;-67
2020/12/05 01:15:01;;;;;;;19.65;17.45;;;;;;;4.07;61.91;97988.84;10416940;28;20057;-65
2020/12/05 01:20:04;;;;;;;18.77;16.98;;;;;;;3.90;62.05;97998.13;10417532;28;20056;-66
2020/12/05 01:25:08;;;;;;;20.00;18.02;;;;;;;4.05;61.73;97986.31;10415953;28;20072;-66
2020/12/05 01:30:11;;;;;;;18.38;16.67;;;;;;;4.05;61.71;97997.53;10416501;28;20130;-67
2020/12/05 01:35:12;;;;;;;19.75;17.85;;;;;;;4.15;61.52;97966.84;10415802;28;20045;-67
2020/12/05 01:40:14;;;;;;;19.63;17.60;;;;;;;4.03;61.91;97975.97;10414701;28;20045;-66
2020/12/05 01:45:15;;;;;;;18.08;16.48;;;;;;;4.07;61.96;97981.03;10416004;28;20037;-66
2020/12/05 01:50:16;;;;;;;18.42;16.83;;;;;;;4.05;62.04;97958.56;10414907;28;20339;-66
2020/12/05 01:55:17;;;;;;;19.70;17.80;;;;;;;4.19;61.58;97958.00;10415843;28;20076;-66
2020/12/05 02:00:18;;;;;;;18.90;17.05;;;;;;;4.20;61.74;97964.91;10414488;28;20517;-67
2020/12/05 02:05:46;;;;;;;17.52;15.82;;;;;;;4.00;62.53;97957.88;10414417;28;20124;-67
2020/12/05 02:10:49;;;;;;;18.33;16.05;;;;;;;4.12;62.05;97955.69;10414757;28;20037;-66
2020/12/05 02:15:53;;;;;;;17.67;15.98;;;;;;;4.14;62.26;97941.75;10414592;28;20041;-66
2020/12/05 02:20:58;;;;;;;18.33;16.55;;;;;;;4.24;62.11;97922.25;10414252;28;20111;-66
2020/12/05 02:26:03;;;;;;;17.83;16.02;;;;;;;4.22;62.11;97926.69;10415161;28;20045;-66
2020/12/05 02:31:06;;;;;;;17.35;15.65;;;;;;;4.27;62.21;97936.91;10414502;28;20047;-66
2020/12/05 02:36:07;;;;;;;16.27;14.80;;;;;;;4.36;61.89;97939.16;10415003;28;20069;-65
2020/12/05 02:41:08;;;;;;;17.05;15.38;;;;;;;4.42;61.88;97935.44;10421974;28;20046;-66
2020/12/05 02:46:10;;;;;;;17.67;15.98;;;;;;;4.51;61.55;97945.47;10423564;28;20046;-66
2020/12/05 02:51:11;;;;;;;17.35;15.73;;;;;;;4.52;61.52;97942.81;10421836;28;20049;-67
2020/12/05 02:56:16;;;;;;;17.38;15.60;;;;;;;4.58;61.61;97946.09;10421736;28;20173;-66
2020/12/05 03:01:18;;;;;;;17.00;15.40;;;;;;;4.66;61.38;97931.00;10421333;28;20041;-66
2020/12/05 03:06:19;;;;;;;15.30;14.00;;;;;;;4.65;61.30;97906.75;10421276;28;20050;-67
2020/12/05 03:11:20;;;;;;;15.07;13.65;;;;;;;4.61;61.62;97896.53;10421199;28;20045;-67
2020/12/05 03:16:21;;;;;;;17.23;15.73;;;;;;;4.57;61.65;97866.34;10421057;28;20076;-67
2020/12/05 03:21:22;;;;;;;16.92;15.38;;;;;;;4.48;62.13;97873.63;10421406;28;20115;-66
2020/12/05 03:26:23;;;;;;;15.48;13.93;;;;;;;4.49;62.32;97825.03;10421042;28;20045;-67
2020/12/05 03:36:31;;;;;;;16.38;14.98;;;;;;;4.62;62.33;97830.56;10420795;28;20364;-66
2020/12/05 03:41:32;;;;;;;14.82;13.52;;;;;;;4.72;61.92;97842.25;10420182;28;20097;-66
2020/12/05 03:46:34;;;;;;;15.52;14.13;;;;;;;4.62;62.34;97867.00;10419953;28;20447;-67
2020/12/05 03:51:35;;;;;;;16.67;15.20;;;;;;;4.63;62.43;97846.09;10419390;28;20046;-66
2020/12/05 03:56:36;;;;;;;16.48;15.07;;;;;;;4.67;62.40;97849.41;10419574;28;20037;-66
2020/12/05 04:01:37;;;;;;;15.00;13.82;;;;;;;4.80;62.21;97834.97;10418438;28;20501;-67
2020/12/05 04:06:39;;;;;;;16.42;14.88;;;;;;;4.88;61.88;97850.25;10419879;28;20061;-66
2020/12/05 04:11:40;;;;;;;15.55;14.18;;;;;;;4.82;61.96;97830.53;10418737;28;20064;-66
2020/12/05 04:16:42;;;;;;;15.82;14.27;;;;;;;4.84;62.06;97820.91;10419143;28;20147;-66
2020/12/05 04:21:49;;;;;;;15.27;13.95;;;;;;;5.01;61.87;97854.00;10419232;28;20049;-66
2020/12/05 04:26:50;;;;;;;15.15;13.65;;;;;;;4.85;62.43;97846.00;10419628;28;20375;-66
2020/12/05 04:31:51;;;;;;;14.45;13.10;;;;;;;4.89;62.58;97839.75;10418086;28;20048;-66
2020/12/05 04:36:52;;;;;;;15.20;13.90;;;;;;;4.81;62.88;97845.28;10417661;28;20055;-66
2020/12/05 04:41:53;;;;;;;16.35;14.95;;;;;;;4.92;62.69;97844.00;10417370;28;20049;-66
2020/12/05 04:46:57;;;;;;;15.85;14.25;;;;;;;4.93;62.89;97851.75;10418208;28;20073;-66
2020/12/05 04:52:17;;;;;;;14.50;13.30;;;;;;;5.20;62.05;97849.66;10417021;28;20049;-66
2020/12/05 04:57:24;;;;;;;14.80;13.40;;;;;;;5.16;62.29;97865.50;10418274;28;20034;-66
2020/12/05 05:02:28;;;;;;;13.73;12.63;;;;;;;5.23;62.06;97870.38;10416861;28;20068;-66
2020/12/05 05:07:31;;;;;;;14.18;12.88;;;;;;;5.23;62.22;97878.19;10417525;28;20037;-66
2020/12/05 05:12:33;;;;;;;15.43;13.98;;;;;;;5.04;62.78;97908.53;10414763;28;20061;-65
2020/12/05 05:17:48;;;;;;;14.55;13.25;;;;;;;5.03;62.94;97901.66;10416258;28;20100;-65
2020/12/05 05:22:52;;;;;;;14.10;12.90;;;;;;;5.05;63.08;97915.47;10415994;28;20068;-65
2020/12/05 05:27:59;;;;;;;12.27;11.18;;;;;;;5.29;62.26;97932.59;10415290;28;20513;-66
2020/12/05 05:33:04;;;;;;;;;;;;;;;5.18;62.64;97932.25;10415511;28;20045;-66
2020/12/05 05:38:05;;;;;;;12.90;11.65;;;;;;;5.32;62.44;97924.66;10415219;28;20379;-65
2020/12/05 05:43:14;;;;;;;14.02;12.70;;;;;;;5.35;62.48;97936.69;10415087;28;20447;-66
2020/12/05 05:48:16;;;;;;;13.05;11.95;;;;;;;5.46;62.23;97941.44;10415082;28;20045;-66
2020/12/05 05:53:23;;;;;;;12.27;11.18;;;;;;;5.53;61.86;97943.72;10414358;28;20045;-66
2020/12/05 06:04:02;;;;;;;11.10;10.20;;;;;;;5.76;61.03;97962.69;10409995;28;20071;-63
2020/12/05 06:09:03;;;;;;;11.15;10.15;;;;;;;5.85;61.15;97962.25;10418778;28;20076;-63
2020/12/05 06:14:05;;;;;;;11.88;10.82;;;;;;;5.87;60.81;97968.25;10418274;28;20041;-63
2020/12/05 06:19:07;;;;;;;10.13;9.20;;;;;;;5.85;61.29;97971.84;10400298;28;20073;-63
2020/12/05 06:24:08;;;;;;;10.85;9.77;;;;;;;5.90;61.12;98004.63;10399052;28;20124;-64
2020/12/05 06:29:11;;;;;;;11.75;10.75;;;;;;;5.79;61.91;98004.22;10418002;28;20084;-62
2020/12/05 06:34:41;;;;;;;12.88;11.77;;;;;;;5.93;61.86;98012.34;10417579;28;20137;-63
2020/12/05 06:39:58;;;;;;;11.52;10.57;;;;;;;5.72;62.46;98013.25;10416883;28;20037;-63
2020/12/05 06:45:00;;;;;;;12.93;11.60;;;;;;;5.83;62.45;98022.28;10416011;28;20050;-63
2020/12/05 06:50:01;;;;;;;12.45;11.20;;;;;;;5.93;62.02;98027.13;10417926;28;20072;-63
2020/12/05 06:55:08;;;;;;;11.45;10.45;;;;;;;5.80;62.34;98037.25;10417909;28;20161;-64
2020/12/05 07:00:16;;;;;;;8.30;7.55;;;;;;;5.82;62.30;98041.44;10416740;28;20149;-63
2020/12/05 07:05:18;;;;;;;10.73;9.82;;;;;;;5.90;62.13;98045.50;10417032;28;20037;-63
2020/12/05 07:10:21;;;;;;;10.80;9.80;;;;;;;6.01;61.73;98036.28;10417874;28;20056;-63
2020/12/05 07:15:27;;;;;;;10.63;9.73;;;;;;;5.94;62.04;98058.34;10417840;28;20042;-64
2020/12/05 07:20:28;;;;;;;9.80;8.90;;;;;;;6.18;61.38;98090.31;10416624;28;20037;-63
2020/12/05 07:25:30;;;;;;;10.13;9.27;;;;;;;6.36;61.14;98134.75;10423010;28;20066;-64
2020/12/05 07:30:31;;;;;;;10.60;9.70;;;;;;;6.30;61.40;98165.44;10424208;28;20056;-65
2020/12/05 07:35:32;;;;;;;9.85;9.05;;;;;;;6.33;61.58;98187.94;10465055;28;20502;-62
2020/12/05 07:40:33;;;;;;;10.15;9.30;;;;;;;6.13;61.92;98216.66;10464497;28;20132;-62
2020/12/05 07:45:34;;;;;;;10.43;9.52;;;;;;;6.12;62.06;98231.47;10464549;28;20041;-63
2020/12/05 07:50:35;;;;;;;9.75;8.85;;;;;;;6.17;62.13;98239.09;10444205;28;20049;-64
2020/12/05 07:55:37;;;;;;;10.25;9.35;;;;;;;6.64;61.09;98234.41;10446917;28;20041;-64
2020/12/05 08:00:38;;;;;;;9.18;8.35;;;;;;;6.94;59.94;98228.69;10464479;28;20135;-64
2020/12/05 08:05:48;;;;;;;10.43;9.52;;;;;;;6.96;60.18;98259.06;10464242;28;20049;-65
2020/12/05 08:10:49;;;;;;;9.50;8.60;;;;;;;6.87;60.64;98288.22;10463798;28;20049;-63
2020/12/05 08:15:57;;;;;;;9.13;8.23;;;;;;;7.03;60.28;98288.38;10463760;28;20069;-63
2020/12/05 08:21:00;;;;;;;9.35;8.55;;;;;;;7.04;59.83;98292.69;10446145;28;20552;-63
2020/12/05 08:26:04;;;;;;;8.73;8.02;;;;;;;6.90;59.97;98258.50;10463672;28;20512;-63
2020/12/05 08:31:08;;;;;;;8.98;8.15;;;;;;;6.46;61.21;98237.81;10463689;28;20128;-63
2020/12/05 08:36:31;;;;;;;8.95;8.15;;;;;;;6.68;60.50;98339.53;10462661;28;20044;-63
2020/12/05 08:41:43;;;;;;;8.50;7.80;;;;;;;6.62;60.74;98360.69;10463792;28;20057;-63
2020/12/05 08:46:45;;;;;;;8.88;8.15;;;;;;;6.68;60.76;98373.50;10463886;28;20037;-63
2020/12/05 08:51:51;;;;;;;7.82;7.22;;;;;;;7.29;58.95;98379.50;10445669;28;20056;-64
2020/12/05 08:57:09;;;;;;;7.75;7.05;;;;;;;7.29;58.99;98395.19;10464074;28;20044;-64
2020/12/05 09:02:12;;;;;;;8.32;7.53;;;;;;;7.06;59.69;98424.94;10462705;28;20123;-64
2020/12/05 09:07:18;;;;;;;8.05;7.35;;;;;;;6.76;60.52;98436.69;10463242;28;20037;-64
2020/12/05 09:12:19;;;;;;;10.02;9.13;;;;;;;7.20;59.55;98502.72;10463219;28;20068;-63
2020/12/05 09:17:23;;;;;;;10.60;9.70;;;;;;;6.93;59.84;98520.41;10462688;28;20041;-64
2020/12/05 09:22:31;;;;;;;11.23;10.25;;;;;;;6.81;60.08;98502.63;10462144;28;20073;-64
2020/12/05 09:27:37;;;;;;;12.82;11.50;;;;;;;6.81;59.74;98513.06;10443932;28;20086;-64
2020/12/05 09:32:46;;;;;;;11.30;10.30;;;;;;;6.91;59.78;98498.75;10460406;28;20509;-64
2020/12/05 09:37:50;;;;;;;9.70;8.90;;;;;;;6.94;58.98;98509.06;10461753;28;20043;-65
2020/12/05 09:42:55;;;;;;;21.35;18.35;;;;;;;7.39;58.19;98555.06;10462016;28;20489;-64
2020/12/05 09:47:56;;;;;;;8.80;8.00;;;;;;;7.12;57.97;98559.69;10461956;28;20375;-63
2020/12/05 09:52:59;;;;;;;8.32;7.53;;;;;;;7.19;57.37;98570.75;10460339;28;20051;-66
2020/12/05 09:58:00;;;;;;;9.25;8.35;;;;;;;7.26;57.66;98551.28;10443100;28;20045;-64
2020/12/05 10:03:01;;;;;;;7.85;7.15;;;;;;;7.29;58.49;98545.94;10459560;28;20542;-64
2020/12/05 10:08:03;;;;;;;7.97;7.28;;;;;;;7.44;57.90;98529.59;10443672;28;20064;-65
2020/12/05 10:13:05;;;;;;;10.73;9.63;;;;;;;7.29;57.63;98499.72;10459646;28;20044;-65
2020/12/05 10:18:06;;;;;;;12.50;11.32;;;;;;;7.25;57.72;98529.53;10461201;28;20148;-64
2020/12/05 10:23:07;;;;;;;11.25;10.15;;;;;;;7.22;58.51;98524.44;10461292;28;20135;-63
2020/12/05 10:28:08;;;;;;;9.48;8.35;;;;;;;7.49;58.83;98559.00;10461310;28;20049;-64
2020/12/05 10:33:09;;;;;;;9.02;8.20;;;;;;;7.89;58.04;98562.50;10461013;28;20073;-64
2020/12/05 10:38:10;;;;;;;9.45;8.65;;;;;;;8.12;57.76;98576.34;10461482;28;20052;-65
2020/12/05 10:43:15;;;;;;;8.98;8.20;;;;;;;8.04;57.99;98589.75;10460011;28;20063;-65
2020/12/05 10:48:16;;;;;;;9.18;8.35;;;;;;;8.41;57.15;98596.84;10461793;28;20040;-64
2020/12/05 10:53:17;;;;;;;9.82;8.60;;;;;;;8.50;57.28;98600.78;10460722;28;20076;-65
2020/12/05 10:58:20;;;;;;;10.05;9.15;;;;;;;8.99;56.07;98612.44;10463708;28;20405;-65
2020/12/05 11:03:21;;;;;;;10.65;9.75;;;;;;;8.94;56.29;98603.97;10467567;28;20494;-64
2020/12/05 11:08:22;;;;;;;9.65;8.65;;;;;;;9.08;55.99;98606.75;10466657;28;20509;-62
2020/12/05 11:13:24;;;;;;;9.98;9.10;;;;;;;9.62;55.44;98622.47;10466554;28;20569;-64
2020/12/05 11:18:25;;;;;;;9.82;9.02;;;;;;;9.51;54.93;98620.34;10465614;28;20128;-65
2020/12/05 11:23:26;;;;;;;9.77;8.88;;;;;;;9.16;55.73;98627.34;10465781;28;20049;-65
2020/12/05 11:28:30;;;;;;;9.52;8.68;;;;;;;9.10;56.04;98636.34;10465531;28;20155;-65
2020/12/05 11:33:31;;;;;;;11.20;10.07;;;;;;;9.20;55.76;98622.78;10447071;28;20044;-65
2020/12/05 11:38:32;;;;;;;11.50;10.60;;;;;;;9.29;55.94;98609.22;10464883;28;20036;-64
2020/12/05 11:43:35;;;;;;;10.40;9.50;;;;;;;9.29;56.02;98615.31;10463747;28;20119;-65
2020/12/05 11:48:36;;;;;;;11.15;10.07;;;;;;;9.04;56.43;98592.09;10449002;28;20077;-65
2020/12/05 11:53:38;;;;;;;10.48;9.57;;;;;;;8.79;56.99;98587.19;10465324;28;20041;-65
2020/12/05 11:58:39;;;;;;;14.30;10.30;;;;;;;8.88;56.85;98603.38;10448817;28;20076;-65
2020/12/05 12:03:41;;;;;;;11.43;10.45;;;;;;;8.68;57.67;98618.28;10464545;22;20076;-66
2020/12/05 12:08:44;;;;;;;12.00;10.90;;;;;;;8.76;57.42;98637.09;10419579;28;20130;-64
2020/12/05 12:13:45;;;;;;;14.40;12.95;;;;;;;8.63;57.93;98642.97;10418842;28;20051;-65
2020/12/05 12:18:46;;;;;;;14.38;12.27;;;;;;;8.44;58.35;98656.06;10415877;28;20060;-64
2020/12/05 12:23:47;;;;;;;14.10;12.63;;;;;;;8.44;58.38;98656.06;10417956;28;20048;-65
2020/12/05 12:28:48;;;;;;;12.50;11.43;;;;;;;8.32;58.79;98670.50;10418895;28;20046;-65
2020/12/05 12:33:49;;;;;;;14.25;12.02;;;;;;;8.16;59.17;98687.81;10418855;28;20403;-64
2020/12/05 12:38:51;;;;;;;11.35;10.43;;;;;;;8.20;58.91;98702.47;10420759;28;20045;-64
2020/12/05 12:43:56;;;;;;;11.73;10.57;;;;;;;8.22;58.93;98705.88;10419746;28;20372;-65
2020/12/05 12:48:57;;;;;;;12.27;11.25;;;;;;;8.33;59.00;98714.13;10418168;28;20125;-65
2020/12/05 12:53:58;;;;;;;12.68;11.68;;;;;;;8.52;58.56;98720.28;10419006;28;20041;-64
2020/12/05 12:58:59;;;;;;;11.43;10.50;;;;;;;8.67;57.59;98731.81;10418822;28;20132;-63
2020/12/05 13:04:01;;;;;;;12.60;10.80;;;;;;;8.62;58.12;98748.69;10416270;28;20046;-64
2020/12/05 13:09:03;;;;;;;12.15;11.15;;;;;;;8.73;57.42;98760.38;10417547;28;20053;-64
2020/12/05 13:14:04;;;;;;;11.93;10.82;;;;;;;8.72;57.39;98753.47;10416945;28;20042;-64
2020/12/05 13:19:05;;;;;;;14.15;12.32;;;;;;;8.49;58.32;98772.78;10417669;28;20045;-64
2020/12/05 13:24:06;;;;;;;13.30;12.20;;;;;;;8.29;58.61;98786.72;10416993;28;20060;-65
2020/12/05 13:29:08;;;;;;;13.75;12.65;;;;;;;8.41;58.39;98781.88;10416982;28;20454;-64
2020/12/05 13:34:09;;;;;;;14.35;13.05;;;;;;;8.11;59.18;98769.16;10416840;28;20120;-65
2020/12/05 13:39:10;;;;;;;13.75;11.98;;;;;;;8.11;59.40;98760.47;10416245;28;20042;-64
2020/12/05 13:44:12;;;;;;;12.95;11.85;;;;;;;8.25;59.42;98768.56;10414827;28;20037;-65
2020/12/05 13:49:13;;;;;;;14.98;13.77;;;;;;;8.59;58.53;98774.09;10415752;28;20586;-64
2020/12/05 13:54:14;;;;;;;14.13;12.93;;;;;;;8.77;57.86;98775.06;10415685;28;20041;-65
2020/12/05 13:59:15;;;;;;;13.88;12.57;;;;;;;8.62;58.37;98777.50;10414069;28;20414;-65
2020/12/05 14:04:16;;;;;;;13.55;12.45;;;;;;;8.50;58.77;98784.97;10414890;28;20157;-65
2020/12/05 14:09:17;;;;;;;15.07;13.75;;;;;;;8.40;59.07;98798.50;10415121;28;20132;-65
2020/12/05 14:14:18;;;;;;;14.30;13.00;;;;;;;8.36;59.19;98803.00;10414711;28;20051;-64
2020/12/05 14:19:20;;;;;;;16.10;14.70;;;;;;;8.15;59.98;98790.84;10414656;28;20382;-64
2020/12/05 14:24:21;;;;;;;16.38;14.93;;;;;;;7.98;60.28;98799.38;10414532;28;20041;-63
2020/12/05 14:29:23;;;;;;;15.88;14.50;;;;;;;7.94;60.55;98795.19;10414114;28;20049;-64
2020/12/05 14:34:25;;;;;;;17.25;15.65;;;;;;;8.03;60.36;98795.66;10419942;28;20084;-63
2020/12/05 14:39:26;;;;;;;16.30;14.00;;;;;;;7.63;61.29;98793.78;10422046;28;20053;-63
2020/12/05 14:44:27;;;;;;;15.60;14.27;;;;;;;7.48;61.92;98792.63;10422141;28;20045;-64
2020/12/05 14:49:29;;;;;;;19.63;17.92;;;;;;;7.66;61.58;98785.84;10422641;28;20462;-63
2020/12/05 14:54:30;;;;;;;19.45;17.83;;;;;;;7.64;61.46;98790.25;10421545;28;20112;-63
2020/12/05 14:59:32;;;;;;;23.25;20.83;;;;;;;7.61;61.64;98792.13;10422607;28;20477;-63
2020/12/05 15:04:33;;;;;;;19.27;17.40;;;;;;;7.44;62.06;98775.38;10421477;28;20144;-63
2020/12/05 15:09:35;;;;;;;19.25;17.65;;;;;;;7.40;62.22;98763.31;10421187;28;20120;-63
2020/12/05 15:14:36;;;;;;;18.38;16.63;;;;;;;7.22;62.63;98761.41;10421304;28;20419;-63
2020/12/05 15:19:37;;;;;;;16.52;15.00;;;;;;;7.28;62.38;98776.84;10420768;28;20056;-64
2020/12/05 15:24:38;;;;;;;16.70;15.40;;;;;;;7.36;62.27;98773.97;10420495;28;20056;-64
2020/12/05 15:29:39;;;;;;;16.75;15.20;;;;;;;7.44;61.81;98779.75;10420455;28;20053;-61
2020/12/05 15:34:41;;;;;;;16.25;14.75;;;;;;;7.50;61.62;98780.34;10419805;28;20117;-63
2020/12/05 15:39:43;;;;;;;16.60;15.10;;;;;;;7.53;61.65;98769.78;10420651;28;20137;-61
2020/12/05 15:44:44;;;;;;;16.67;14.98;;;;;;;7.57;61.42;98762.66;10419160;28;20052;-63
2020/12/05 15:49:45;;;;;;;16.77;15.35;;;;;;;7.28;62.46;98756.78;10420196;28;20055;-63
2020/12/05 15:54:46;;;;;;;15.48;14.05;;;;;;;7.11;62.75;98755.75;10420524;28;20045;-61
2020/12/05 15:59:47;;;;;;;16.58;15.18;;;;;;;7.31;62.61;98763.69;10419101;28;20050;-63
2020/12/05 16:04:50;;;;;;;16.17;14.80;;;;;;;7.41;62.31;98766.78;10418742;28;20056;-63
2020/12/05 16:09:51;;;;;;;17.73;16.23;;;;;;;7.48;62.09;98756.03;10418855;28;20107;-62
2020/12/05 16:14:52;;;;;;;18.02;16.27;;;;;;;7.40;62.40;98749.41;10417816;28;20057;-64
2020/12/05 16:19:53;;;;;;;17.77;15.98;;;;;;;7.38;62.57;98744.22;10418221;28;20147;-64
2020/12/05 16:24:55;;;;;;;19.27;17.20;;;;;;;7.10;63.12;98751.44;10417953;28;20046;-62
2020/12/05 16:29:59;;;;;;;17.67;16.25;;;;;;;7.25;63.04;98753.44;10416694;28;20107;-62
2020/12/05 16:35:01;;;;;;;16.15;14.65;;;;;;;6.97;63.70;98745.81;10417928;28;20060;-63
2020/12/05 16:40:03;;;;;;;18.17;16.55;;;;;;;6.80;64.36;98749.91;10418090;28;20495;-63
2020/12/05 16:45:04;;;;;;;18.77;16.45;;;;;;;6.83;64.32;98757.63;10417536;28;20462;-63
2020/12/05 16:50:08;;;;;;;17.58;16.02;;;;;;;6.63;64.95;98756.66;10417380;28;20069;-63
2020/12/05 16:55:09;;;;;;;19.00;17.27;;;;;;;6.36;65.67;98748.03;10414857;28;20053;-63
2020/12/05 17:00:11;;;;;;;18.52;16.95;;;;;;;6.26;65.94;98732.72;10417381;28;20502;-63
2020/12/05 17:05:12;;;;;;;19.27;17.35;;;;;;;6.33;66.03;98735.97;10417022;28;20120;-63
2020/12/05 17:10:13;;;;;;;19.88;18.08;;;;;;;6.25;66.09;98727.56;10416911;28;20491;-63
2020/12/05 17:15:15;;;;;;;22.73;20.42;;;;;;;6.13;66.48;98739.25;10416870;28;20037;-63
2020/12/05 17:20:16;;;;;;;29.88;22.55;;;;;;;6.14;66.12;98730.53;10416978;28;20068;-62
2020/12/05 17:25:17;;;;;;;31.60;23.85;;;;;;;5.82;67.20;98721.16;10416543;28;20403;-64
2020/12/05 17:30:18;;;;;;;36.67;25.10;;;;;;;5.86;67.38;98709.72;10415978;28;20049;-63
2020/12/05 17:35:19;;;;;;;24.35;22.10;;;;;;;5.89;67.87;98708.75;10417557;28;20053;-63
2020/12/05 17:40:20;;;;;;;31.33;23.45;;;;;;;6.07;66.72;98708.19;10416482;28;20056;-63
2020/12/05 17:45:22;;;;;;;26.83;23.92;;;;;;;6.07;66.60;98703.81;10414893;28;20045;-62
2020/12/05 17:50:23;;;;;;;26.42;23.60;;;;;;;5.84;67.01;98716.72;10418942;28;20045;-63
2020/12/05 17:55:25;;;;;;;28.52;23.02;;;;;;;5.68;67.30;98710.34;10414688;28;20099;-64
2020/12/05 18:00:26;;;;;;;31.55;23.50;;;;;;;5.44;68.03;98715.44;10413072;28;20060;-62
2020/12/05 18:05:28;;;;;;;27.77;23.27;;;;;;;5.48;67.76;98716.19;10413725;28;20048;-63
2020/12/05 18:10:29;;;;;;;27.20;24.40;;;;;;;5.52;67.82;98733.44;10433316;22;20061;-63
2020/12/05 18:15:31;;;;;;;26.52;23.63;;;;;;;5.11;68.62;98738.19;10419856;28;20084;-64
2020/12/05 18:20:32;;;;;;;29.05;25.05;;;;;;;5.07;69.29;98747.00;10418864;28;20072;-65
2020/12/05 18:25:33;;;;;;;31.20;25.52;;;;;;;5.10;69.15;98741.69;10420270;28;20045;-66
2020/12/05 18:30:34;;;;;;;39.50;34.42;;;;;;;5.17;68.98;98745.81;10417708;28;20037;-63
2020/12/05 18:35:36;;;;;;;43.67;28.95;;;;;;;5.12;68.36;98752.06;10418996;28;20054;-64
2020/12/05 18:40:37;;;;;;;34.28;26.67;;;;;;;5.00;68.94;98761.09;10416383;28;20047;-64
2020/12/05 18:45:38;;;;;;;32.78;26.38;;;;;;;4.96;68.99;98756.88;10415413;28;20046;-64
2020/12/05 18:50:39;;;;;;;33.03;26.65;;;;;;;4.52;70.08;98739.03;10415779;28;20183;-64
2020/12/05 18:55:40;;;;;;;40.58;29.13;;;;;;;4.71;70.61;98725.50;10415582;28;20525;-64
2020/12/05 19:00:41;;;;;;;42.88;29.98;;;;;;;4.67;71.00;98697.84;10415623;28;20049;-63
2020/12/05 19:05:43;;;;;;;36.15;27.77;;;;;;;4.99;69.59;98705.53;10415831;28;20049;-65
2020/12/05 19:10:45;;;;;;;39.47;29.92;;;;;;;4.99;69.54;98712.50;10420219;28;20049;-65
2020/12/05 19:15:47;;;;;;;34.95;26.40;;;;;;;4.73;69.69;98714.13;10418882;28;20049;-64
2020/12/05 19:20:52;;;;;;;34.00;27.73;;;;;;;4.54;70.21;98719.03;10406007;28;20053;-63
2020/12/05 19:25:53;;;;;;;30.45;26.85;;;;;;;4.56;70.60;98732.00;10425481;28;20042;-64
2020/12/05 19:30:55;;;;;;;34.40;27.15;;;;;;;4.29;70.62;98729.28;10426555;28;20045;-65
2020/12/05 19:35:56;;;;;;;43.03;29.30;;;;;;;4.37;71.51;98731.66;10426481;28;20105;-65
2020/12/05 19:41:02;;;;;;;33.70;27.40;;;;;;;4.25;70.85;98744.97;10425229;28;20103;-70
2020/12/05 19:46:03;;;;;;;37.47;29.33;;;;;;;4.06;71.71;98729.00;10423866;28;20052;-66
2020/12/05 19:51:04;;;;;;;44.00;29.98;;;;;;;4.40;71.82;98735.94;10426546;28;20137;-66
2020/12/05 19:56:05;;;;;;;43.83;30.02;;;;;;;4.55;71.93;98736.34;10426278;28;20470;-65
2020/12/05 20:01:10;;;;;;;37.80;29.38;;;;;;;4.54;71.11;98742.44;10425010;28;20045;-64
2020/12/05 20:06:11;;;;;;;33.72;26.95;;;;;;;4.79;70.39;98731.34;10424864;28;20045;-67
2020/12/05 20:11:14;;;;;;;37.17;27.83;;;;;;;4.34;71.26;98730.88;10424043;28;20049;-66
2020/12/05 20:16:19;;;;;;;31.52;26.60;;;;;;;4.32;71.72;98733.53;10424573;28;20096;-66
2020/12/05 20:21:20;;;;;;;31.42;26.27;;;;;;;4.67;70.56;98710.88;10423876;28;20480;-64
2020/12/05 20:26:21;;;;;;;34.05;28.02;;;;;;;4.50;71.40;98707.00;10424162;28;20037;-65
2020/12/05 20:31:24;;;;;;;29.05;26.00;;;;;;;4.73;70.52;98716.72;10423469;28;20049;-64
2020/12/05 20:36:25;;;;;;;38.72;27.38;;;;;;;4.51;70.87;98721.69;10423971;28;20052;-64
2020/12/05 20:41:26;;;;;;;30.33;26.02;;;;;;;4.31;71.18;98718.81;10422752;28;20050;-65
2020/12/05 20:46:27;;;;;;;39.42;28.45;;;;;;;4.49;71.58;98740.88;10423919;28;20072;-65
2020/12/05 20:51:28;;;;;;;42.03;30.05;;;;;;;4.50;71.63;98737.38;10422291;28;20045;-66
2020/12/05 20:56:30;;;;;;;41.53;29.42;;;;;;;4.19;71.47;98714.78;10423212;28;20045;-66
2020/12/05 21:01:31;;;;;;;40.83;29.73;;;;;;;4.27;71.35;98722.41;10422113;28;20152;-66
2020/12/05 21:06:32;;;;;;;45.65;31.15;;;;;;;4.59;71.49;98731.06;10422499;28;20055;-66
2020/12/05 21:11:35;;;;;;;46.63;30.73;;;;;;;4.51;71.42;98708.69;10419842;28;20045;-65
2020/12/05 21:16:41;;;;;;;45.35;30.33;;;;;;;4.41;71.63;98727.22;10422523;28;20120;-65
2020/12/05 21:21:42;;;;;;;39.67;29.20;;;;;;;4.40;72.01;98718.56;10422436;28;20075;-65
2020/12/05 21:26:47;;;;;;;31.27;27.90;;;;;;;4.36;71.44;98727.34;10422721;28;20547;-65
2020/12/05 21:31:48;;;;;;;35.05;28.02;;;;;;;4.48;71.31;98716.59;10421777;28;20068;-66
2020/12/05 21:36:49;;;;;;;32.25;27.23;;;;;;;4.17;72.16;98715.75;10420685;28;20044;-64
2020/12/05 21:41:50;;;;;;;42.97;30.65;;;;;;;4.04;73.03;98703.06;10422002;28;20177;-66
2020/12/05 21:46:52;;;;;;;47.92;30.13;;;;;;;4.10;72.57;98683.84;10419698;28;20037;-66
2020/12/05 21:51:53;;;;;;;40.22;30.60;;;;;;;4.47;71.85;98686.28;10418785;28;20065;-63
2020/12/05 21:56:55;;;;;;;42.10;30.83;;;;;;;4.23;72.06;98680.00;10420012;28;20033;-65
2020/12/05 22:01:57;;;;;;;35.33;28.15;;;;;;;4.38;71.80;98685.66;10419955;28;20042;-64
2020/12/05 22:06:58;;;;;;;41.35;29.90;;;;;;;4.28;72.33;98692.88;10417301;28;20097;-65
2020/12/05 22:11:59;;;;;;;36.78;29.00;;;;;;;4.26;72.27;98685.13;10417828;28;20076;-64
2020/12/05 22:17:00;;;;;;;35.38;28.27;;;;;;;4.05;72.90;98678.75;10418017;28;20157;-65
2020/12/05 22:22:01;;;;;;;33.47;28.73;;;;;;;4.04;72.78;98666.66;10416844;28;20056;-64
2020/12/05 22:27:03;;;;;;;43.70;32.20;;;;;;;4.14;72.69;98682.84;10419141;28;20038;-64
2020/12/05 22:32:04;;;;;;;41.25;30.58;;;;;;;4.29;72.71;98676.38;10419854;28;20460;-62
2020/12/05 22:37:06;;;;;;;38.70;29.35;;;;;;;4.02;72.85;98660.63;10418610;28;20049;-65
2020/12/05 22:42:07;;;;;;;37.47;29.73;;;;;;;4.20;72.52;98661.88;10416542;28;20056;-64
2020/12/05 22:47:12;;;;;;;30.20;27.20;;;;;;;3.94;73.32;98664.34;10418354;28;20045;-64
2020/12/05 22:52:13;;;;;;;35.20;27.83;;;;;;;3.97;73.16;98656.47;10417406;28;20049;-64
2020/12/05 22:57:15;;;;;;;36.97;28.05;;;;;;;4.03;72.99;98667.56;10425529;28;20049;-64
2020/12/05 23:02:16;;;;;;;31.88;27.67;;;;;;;3.89;72.20;98659.25;10428120;28;20045;-63
2020/12/05 23:07:17;;;;;;;34.03;29.27;;;;;;;3.92;72.99;98666.13;10426773;28;20037;-65
2020/12/05 23:12:18;;;;;;;32.95;28.90;;;;;;;3.92;73.76;98666.13;10425328;28;20052;-65
2020/12/05 23:17:19;;;;;;;40.83;31.40;;;;;;;4.03;73.64;98664.13;10424530;28;20047;-63
2020/12/05 23:22:20;;;;;;;40.35;31.27;;;;;;;3.87;74.14;98663.66;10424081;28;20049;-64
2020/12/05 23:27:22;;;;;;;45.92;32.15;;;;;;;4.10;73.08;98656.97;10423732;28;20052;-63